Time;durP1;ratioP1;P1;durP2;ratioP2;P2;SDS_P1;SDS_P2;PMS_P1;PMS_P2;Temp;Humidity;BMP_temperature;BMP_pressure;BME280_temperature;BME280_humidity;BME280_pressure;Samples;Min_cycle;Max_cycle;Signal;HPM_P1;HPM_P2
2022/07/02 00:01:49;;;;;;;10.70;7.70;;;13.80;99.90;;;;;;5008837;28;20169;-82
2022/07/02 00:04:24;;;;;;;5.87;5.20;;;13.70;99.90;;;;;;5003231;28;20176;-82
2022/07/02 00:06:51;;;;;;;8.27;6.20;;;13.60;99.90;;;;;;5009469;28;20524;-82
2022/07/02 00:09:17;;;;;;;6.73;5.80;;;13.50;99.90;;;;;;5001438;28;20814;-83
2022/07/02 00:11:43;;;;;;;11.40;7.30;;;13.50;99.90;;;;;;4996800;28;20434;-82
2022/07/02 00:14:09;;;;;;;8.40;6.70;;;13.50;99.90;;;;;;4996871;28;20172;-82
2022/07/02 00:16:35;;;;;;;11.10;6.03;;;13.60;99.90;;;;;;4996381;28;20175;-82
2022/07/02 00:19:01;;;;;;;6.80;4.97;;;13.50;99.90;;;;;;4998962;28;20407;-82
2022/07/02 00:21:27;;;;;;;8.83;7.07;;;13.40;99.90;;;;;;5008794;28;20439;-82
2022/07/02 00:23:52;;;;;;;8.97;6.60;;;13.30;99.90;;;;;;5008873;28;20176;-82
2022/07/02 00:26:25;;;;;;;8.93;5.90;;;13.40;99.90;;;;;;5009323;28;20936;-82
2022/07/02 00:29:12;;;;;;;7.60;6.27;;;13.30;99.90;;;;;;5004178;28;20176;-82
2022/07/02 00:31:38;;;;;;;7.67;6.13;;;13.20;99.90;;;;;;5006274;28;20423;-83
2022/07/02 00:34:05;;;;;;;9.50;8.27;;;13.20;99.90;;;;;;5005590;28;20450;-84
2022/07/02 00:36:32;;;;;;;8.93;5.90;;;13.10;99.90;;;;;;5005400;28;20446;-84
2022/07/02 00:39:00;;;;;;;6.57;5.43;;;13.10;99.90;;;;;;5007137;28;20479;-83
2022/07/02 00:41:28;;;;;;;7.40;6.30;;;13.10;99.90;;;;;;5004877;28;20456;-83
2022/07/02 00:43:54;;;;;;;7.33;5.93;;;13.00;99.90;;;;;;5005012;28;20417;-85
2022/07/02 00:46:22;;;;;;;6.60;5.63;;;13.00;99.90;;;;;;5005963;28;20542;-88
2022/07/02 00:48:47;;;;;;;6.00;5.40;;;12.90;99.90;;;;;;4999323;28;20431;-89
2022/07/02 00:51:13;;;;;;;6.97;6.37;;;12.90;99.90;;;;;;4999654;28;20442;-88
2022/07/02 00:53:39;;;;;;;7.67;6.47;;;12.90;99.90;;;;;;4996458;28;20179;-87
2022/07/02 00:56:04;;;;;;;6.70;5.60;;;12.90;99.90;;;;;;5000557;28;20183;-86
2022/07/02 00:58:32;;;;;;;7.50;5.70;;;13.00;99.90;;;;;;5000785;28;20171;-86
2022/07/02 01:00:59;;;;;;;7.00;5.73;;;12.80;99.90;;;;;;5003149;28;20211;-84
2022/07/02 01:03:26;;;;;;;6.90;5.43;;;12.80;99.90;;;;;;5005363;28;20785;-82
2022/07/02 01:05:52;;;;;;;10.20;6.07;;;12.80;99.90;;;;;;5002392;28;20419;-84
2022/07/02 01:11:05;;;;;;;8.00;6.10;;;12.80;99.90;;;;;;4998731;28;20822;-84
2022/07/02 01:13:32;;;;;;;9.30;5.27;;;12.70;99.90;;;;;;5003286;28;20993;-82
2022/07/02 01:15:57;;;;;;;6.87;5.40;;;12.70;99.90;;;;;;5006745;28;20414;-82
2022/07/02 01:18:23;;;;;;;10.90;6.80;;;12.60;99.90;;;;;;5006937;28;20423;-82
2022/07/02 01:20:48;;;;;;;7.80;5.63;;;12.70;99.90;;;;;;5007347;28;20175;-82
2022/07/02 01:23:14;;;;;;;7.60;5.97;;;12.70;99.90;;;;;;5007931;28;20226;-82
2022/07/02 01:25:41;;;;;;;7.43;5.93;;;12.60;99.90;;;;;;5005954;28;20182;-84
2022/07/02 01:28:06;;;;;;;6.40;5.50;;;12.60;99.90;;;;;;5004124;28;20203;-84
2022/07/02 01:30:32;;;;;;;7.83;5.30;;;12.50;99.90;;;;;;5002385;28;20454;-88
2022/07/02 01:32:58;;;;;;;7.10;6.40;;;12.40;99.90;;;;;;4981387;28;20190;-84
2022/07/02 01:35:23;;;;;;;7.83;5.67;;;12.40;99.90;;;;;;4998363;28;20219;-82
2022/07/02 01:37:52;;;;;;;6.77;6.10;;;12.40;99.90;;;;;;4997994;28;20633;-82
2022/07/02 01:40:18;;;;;;;7.77;6.20;;;12.40;99.90;;;;;;4995534;28;20183;-83
2022/07/02 01:42:43;;;;;;;7.90;5.23;;;12.40;99.90;;;;;;4996913;28;20520;-82
2022/07/02 01:45:09;;;;;;;9.90;6.27;;;12.30;99.90;;;;;;4997070;28;20666;-81
2022/07/02 01:47:35;;;;;;;9.07;6.40;;;12.30;99.90;;;;;;4996534;28;20215;-81
2022/07/02 01:50:00;;;;;;;10.33;6.70;;;12.20;99.90;;;;;;4997189;28;20250;-82
2022/07/02 01:52:26;;;;;;;11.53;6.73;;;12.20;99.90;;;;;;4995567;28;20211;-84
2022/07/02 01:54:52;;;;;;;8.83;6.90;;;12.20;99.90;;;;;;4995702;28;20167;-83
2022/07/02 01:57:17;;;;;;;6.70;5.57;;;12.20;99.90;;;;;;4995305;28;20193;-86
2022/07/02 01:59:43;;;;;;;7.20;6.10;;;12.10;99.90;;;;;;4993151;28;20229;-82
2022/07/02 02:02:08;;;;;;;6.60;5.57;;;12.20;99.90;;;;;;4994531;28;20229;-82
2022/07/02 02:04:34;;;;;;;11.30;6.80;;;12.20;99.90;;;;;;4992935;28;20186;-83
2022/07/02 02:07:00;;;;;;;7.60;6.17;;;12.20;99.90;;;;;;4996978;28;20256;-82
2022/07/02 02:09:26;;;;;;;6.53;5.83;;;12.20;99.90;;;;;;4995475;28;20426;-83
2022/07/02 02:11:51;;;;;;;6.80;5.60;;;12.10;99.90;;;;;;4996297;28;20429;-81
2022/07/02 02:14:17;;;;;;;7.03;5.20;;;12.10;99.90;;;;;;4995050;28;20656;-82
2022/07/02 02:16:42;;;;;;;7.87;5.20;;;12.10;99.90;;;;;;4997206;28;20176;-82
2022/07/02 02:19:08;;;;;;;5.83;4.70;;;12.10;99.90;;;;;;4994244;28;20171;-83
2022/07/02 02:21:33;;;;;;;8.57;6.20;;;12.00;99.90;;;;;;4993799;28;20183;-82
2022/07/02 02:23:59;;;;;;;8.20;6.07;;;12.00;99.90;;;;;;4993867;28;20588;-85
2022/07/02 02:26:26;;;;;;;7.53;5.90;;;12.00;99.90;;;;;;4993717;28;20573;-88
2022/07/02 02:28:52;;;;;;;6.00;5.37;;;12.00;99.90;;;;;;4993610;28;20417;-90
2022/07/02 02:31:17;;;;;;;6.23;5.60;;;12.10;99.90;;;;;;4993456;28;20439;-84
2022/07/02 02:33:43;;;;;;;7.73;6.37;;;12.10;99.90;;;;;;4993772;28;20894;-86
2022/07/02 02:36:08;;;;;;;6.90;5.63;;;12.10;99.90;;;;;;4993952;28;20222;-86
2022/07/02 02:38:37;;;;;;;5.73;5.13;;;12.00;99.90;;;;;;4993614;28;20177;-85
2022/07/02 02:41:07;;;;;;;7.10;5.00;;;12.10;99.90;;;;;;4993547;28;20217;-83
2022/07/02 02:43:34;;;;;;;6.30;5.43;;;12.00;99.90;;;;;;4993740;28;20418;-84
2022/07/02 02:46:00;;;;;;;6.43;5.10;;;12.00;99.90;;;;;;4993178;28;20431;-88
2022/07/02 02:48:27;;;;;;;7.27;6.10;;;12.00;99.90;;;;;;4993429;28;20444;-86
2022/07/02 02:50:52;;;;;;;8.73;5.23;;;12.00;99.90;;;;;;4993504;28;20781;-86
2022/07/02 02:53:18;;;;;;;7.17;6.00;;;11.90;99.90;;;;;;4993490;28;20420;-87
2022/07/02 02:55:43;;;;;;;6.37;5.47;;;11.90;99.90;;;;;;4993647;28;20172;-84
2022/07/02 02:58:09;;;;;;;9.53;5.90;;;11.90;99.90;;;;;;4993671;28;20658;-86
2022/07/02 03:00:34;;;;;;;7.40;4.93;;;11.90;99.90;;;;;;4993192;28;20175;-85
2022/07/02 03:03:00;;;;;;;7.33;6.13;;;11.90;99.90;;;;;;4993507;28;20195;-82
2022/07/02 03:05:26;;;;;;;7.10;6.00;;;12.00;99.90;;;;;;4993216;28;20179;-82
2022/07/02 03:07:51;;;;;;;7.50;6.80;;;12.20;99.90;;;;;;4993066;28;20292;-82
2022/07/02 03:10:17;;;;;;;8.50;6.17;;;12.10;99.90;;;;;;4993487;28;20465;-82
2022/07/02 03:12:42;;;;;;;8.60;6.30;;;12.10;99.90;;;;;;4992623;28;20541;-83
2022/07/02 03:15:08;;;;;;;11.43;6.47;;;12.20;99.90;;;;;;4996631;28;20174;-86
2022/07/02 03:17:34;;;;;;;11.63;6.07;;;12.10;99.90;;;;;;4997055;28;20241;-82
2022/07/02 03:20:00;;;;;;;8.17;6.10;;;12.10;99.90;;;;;;4996820;28;20208;-83
2022/07/02 03:22:25;;;;;;;6.50;5.70;;;12.10;99.90;;;;;;4997462;28;20198;-80
2022/07/02 03:24:51;;;;;;;8.37;5.60;;;12.00;99.90;;;;;;4998652;28;20266;-80
2022/07/02 03:27:16;;;;;;;6.87;6.17;;;12.00;99.90;;;;;;4999091;28;20207;-81
2022/07/02 03:29:42;;;;;;;7.47;6.30;;;12.00;99.90;;;;;;4998643;28;20175;-81
2022/07/02 03:32:08;;;;;;;5.60;5.10;;;12.00;99.90;;;;;;4998985;28;20663;-81
2022/07/02 03:34:33;;;;;;;7.53;6.30;;;11.90;99.90;;;;;;4999299;28;20170;-81
2022/07/02 03:36:59;;;;;;;7.53;5.67;;;12.00;99.90;;;;;;4997944;28;20183;-81
2022/07/02 03:39:24;;;;;;;8.10;6.93;;;12.00;99.90;;;;;;4998824;28;20653;-82
2022/07/02 03:41:50;;;;;;;10.83;7.10;;;12.10;99.90;;;;;;4998856;28;20250;-80
2022/07/02 03:44:15;;;;;;;13.63;7.17;;;12.10;99.90;;;;;;4999822;28;20182;-80
2022/07/02 03:46:41;;;;;;;9.20;6.97;;;12.10;99.90;;;;;;4996881;28;20674;-80
2022/07/02 03:49:06;;;;;;;7.27;6.57;;;12.20;99.90;;;;;;4996351;28;20170;-80
2022/07/02 03:51:32;;;;;;;10.97;6.33;;;12.20;99.90;;;;;;4996385;28;20183;-80
2022/07/02 03:53:57;;;;;;;11.20;6.93;;;12.30;99.90;;;;;;4996159;28;20194;-80
2022/07/02 03:56:23;;;;;;;13.10;7.90;;;12.30;99.90;;;;;;4996162;28;20195;-80
2022/07/02 03:58:48;;;;;;;9.87;8.17;;;12.40;99.90;;;;;;4996051;28;20185;-80
2022/07/02 04:01:14;;;;;;;9.90;8.90;;;12.40;99.90;;;;;;4995922;28;20235;-80
2022/07/02 04:03:39;;;;;;;13.07;9.43;;;12.50;99.90;;;;;;4996018;28;20186;-80
2022/07/02 04:06:05;;;;;;;10.83;9.27;;;12.50;99.90;;;;;;4995833;28;20181;-80
2022/07/02 04:08:30;;;;;;;10.60;9.20;;;12.60;99.90;;;;;;4995754;28;20205;-80
2022/07/02 04:10:56;;;;;;;11.40;8.70;;;12.60;99.90;;;;;;4995749;28;20206;-79
2022/07/02 04:13:21;;;;;;;11.00;9.57;;;12.60;99.90;;;;;;4994439;28;20188;-80
2022/07/02 04:15:47;;;;;;;11.40;10.10;;;12.70;99.90;;;;;;4994108;28;20701;-79
2022/07/02 04:18:12;;;;;;;10.90;8.87;;;12.70;99.90;;;;;;4995501;28;20662;-80
2022/07/02 04:20:38;;;;;;;8.50;7.57;;;12.80;99.90;;;;;;4995466;28;20180;-79
2022/07/02 04:23:03;;;;;;;11.57;8.77;;;12.80;99.90;;;;;;4995409;28;20168;-80
2022/07/02 04:25:29;;;;;;;10.30;9.17;;;12.80;99.90;;;;;;4993500;28;20670;-79
2022/07/02 04:27:55;;;;;;;9.57;8.07;;;12.90;99.90;;;;;;4995244;28;20218;-80
2022/07/02 04:30:21;;;;;;;10.47;7.37;;;12.90;99.90;;;;;;4995050;28;20575;-80
2022/07/02 04:32:46;;;;;;;11.00;8.40;;;12.90;99.90;;;;;;4995349;28;20479;-80
2022/07/02 04:35:12;;;;;;;9.70;8.00;;;13.00;99.90;;;;;;4995315;28;20174;-80
2022/07/02 04:37:37;;;;;;;11.30;9.40;;;13.00;99.90;;;;;;4995111;28;20539;-80
2022/07/02 04:40:04;;;;;;;9.50;8.50;;;13.10;99.90;;;;;;4995154;28;20185;-80
2022/07/02 04:42:31;;;;;;;10.73;8.50;;;13.10;99.90;;;;;;4994798;28;20589;-80
2022/07/02 04:44:56;;;;;;;10.40;7.90;;;13.10;99.90;;;;;;4994816;28;20423;-80
2022/07/02 04:47:22;;;;;;;9.47;8.47;;;13.20;99.90;;;;;;4994955;28;20680;-80
2022/07/02 04:49:47;;;;;;;9.87;8.43;;;13.20;99.90;;;;;;4995005;28;20165;-80
2022/07/02 04:52:13;;;;;;;9.73;7.60;;;13.20;99.90;;;;;;4994961;28;20256;-80
2022/07/02 04:54:38;;;;;;;8.83;7.77;;;13.30;99.90;;;;;;4993710;28;20172;-80
2022/07/02 04:57:04;;;;;;;10.83;8.20;;;13.40;99.90;;;;;;4994704;28;20534;-80
2022/07/02 04:59:29;;;;;;;8.13;6.80;;;13.50;99.90;;;;;;4994356;28;20238;-80
2022/07/02 05:01:55;;;;;;;16.23;8.30;;;13.50;99.90;;;;;;4994737;28;20586;-80
2022/07/02 05:04:20;;;;;;;10.47;7.90;;;13.60;99.90;;;;;;4994671;28;20650;-80
2022/07/02 05:06:46;;;;;;;10.00;7.10;;;13.60;99.90;;;;;;4994486;28;20233;-80
2022/07/02 05:09:12;;;;;;;11.50;8.17;;;13.70;99.90;;;;;;4994661;28;20673;-80
2022/07/02 05:11:37;;;;;;;10.00;7.77;;;13.80;99.90;;;;;;4993275;28;20186;-80
2022/07/02 05:14:02;;;;;;;10.90;7.20;;;13.90;99.90;;;;;;4994479;28;20253;-80
2022/07/02 05:16:28;;;;;;;11.03;7.57;;;14.10;99.90;;;;;;4994081;28;20168;-80
2022/07/02 05:18:54;;;;;;;9.30;7.77;;;14.20;99.90;;;;;;4994355;28;20268;-80
2022/07/02 05:21:19;;;;;;;7.50;6.17;;;14.20;99.90;;;;;;4994287;28;20527;-80
2022/07/02 05:23:45;;;;;;;7.00;5.70;;;14.40;99.90;;;;;;4994396;28;20198;-80
2022/07/02 05:26:10;;;;;;;11.80;6.53;;;14.40;99.90;;;;;;4994155;28;22444;-80
2022/07/02 05:28:36;;;;;;;10.83;5.93;;;14.50;99.90;;;;;;4994100;28;20191;-80
2022/07/02 05:31:01;;;;;;;5.20;4.70;;;14.70;99.90;;;;;;4993754;28;20248;-80
2022/07/02 05:33:27;;;;;;;7.33;6.20;;;14.90;99.90;;;;;;4994065;28;20187;-80
2022/07/02 05:35:53;;;;;;;5.53;4.87;;;15.00;99.90;;;;;;4993563;28;20203;-80
2022/07/02 05:38:18;;;;;;;11.30;5.83;;;15.30;99.90;;;;;;4994100;28;20237;-80
2022/07/02 05:40:44;;;;;;;5.27;3.77;;;15.40;99.90;;;;;;4993927;28;20541;-81
2022/07/02 05:43:09;;;;;;;6.23;4.50;;;15.60;99.90;;;;;;4993901;28;20217;-81
2022/07/02 05:45:35;;;;;;;7.80;5.23;;;15.70;99.90;;;;;;4993565;28;20179;-81
2022/07/02 05:48:00;;;;;;;7.47;4.40;;;16.00;99.90;;;;;;4993900;28;20244;-81
2022/07/02 05:50:26;;;;;;;7.33;4.73;;;16.10;99.90;;;;;;4992599;28;20605;-81
2022/07/02 05:52:51;;;;;;;4.40;3.60;;;16.30;99.90;;;;;;4993859;28;20653;-81
2022/07/02 05:55:17;;;;;;;8.20;4.57;;;16.40;99.90;;;;;;4993864;28;20260;-80
2022/07/02 05:57:42;;;;;;;5.67;4.53;;;16.50;99.90;;;;;;4992547;28;20595;-81
2022/07/02 06:00:10;;;;;;;3.47;2.70;;;16.80;99.90;;;;;;4992035;28;20701;-81
2022/07/02 06:02:36;;;;;;;5.57;3.57;;;16.90;99.90;;;;;;4993730;28;20546;-83
2022/07/02 06:07:38;;;;;;;6.60;3.43;;;16.90;99.90;;;;;;4993846;28;20406;-81
2022/07/02 06:07:51;;;;;;;4.93;3.20;;;17.20;99.90;;;;;;4993540;28;20995;-81
2022/07/02 06:10:19;;;;;;;3.00;2.80;;;17.30;1.00;;;;;;4992614;28;20930;-82
2022/07/02 06:12:50;;;;;;;4.50;3.67;;;17.40;30.50;;;;;;4993615;28;20424;-84
2022/07/02 06:15:17;;;;;;;3.80;2.47;;;17.80;99.90;;;;;;4992031;28;20824;-81
2022/07/02 06:17:43;;;;;;;4.20;2.83;;;18.00;1.00;;;;;;4993493;28;20408;-81
2022/07/02 06:20:09;;;;;;;3.80;2.50;;;17.90;1.00;;;;;;4993824;28;20507;-80
2022/07/02 06:22:34;;;;;;;3.00;2.47;;;18.20;1.00;;;;;;4994157;28;20178;-81
2022/07/02 06:25:00;;;;;;;3.97;2.50;;;18.30;1.00;;;;;;4993791;28;20943;-81
2022/07/02 06:27:25;;;;;;;2.83;2.33;;;18.30;1.00;;;;;;4993565;28;20219;-81
2022/07/02 06:29:51;;;;;;;4.53;2.33;;;18.40;1.00;;;;;;4993202;28;20575;-82
2022/07/02 06:32:16;;;;;;;2.80;1.80;;;18.50;1.00;;;;;;4993544;28;20250;-82
2022/07/02 06:34:43;;;;;;;4.73;1.50;;;18.70;99.90;;;;;;4993705;28;20250;-82
2022/07/02 06:37:08;;;;;;;3.70;2.00;;;18.80;99.90;;;;;;4992733;28;20205;-82
2022/07/02 06:39:34;;;;;;;5.17;2.27;;;19.10;99.90;;;;;;4993902;28;20425;-82
2022/07/02 06:44:44;;;;;;;3.13;1.73;;;19.60;1.00;;;;;;4993784;28;20741;-81
2022/07/02 06:47:09;;;;;;;2.20;1.80;;;19.80;99.90;;;;;;4993474;28;20470;-81
2022/07/02 06:49:35;;;;;;;3.93;1.60;;;19.90;1.00;;;;;;4997245;28;20207;-81
2022/07/02 06:52:00;;;;;;;4.77;2.30;;;20.20;99.90;;;;;;4997350;28;20184;-81
2022/07/02 06:54:26;;;;;;;5.43;1.90;;;20.50;99.90;;;;;;4997330;28;20183;-81
2022/07/02 06:56:51;;;;;;;4.43;1.63;;;20.70;1.00;;;;;;4997407;28;20767;-81
2022/07/02 06:59:17;;;;;;;1.43;1.00;;;21.30;99.90;;;;;;4995640;28;20204;-81
2022/07/02 07:01:43;;;;;;;3.37;1.60;;;21.90;1.00;;;;;;4996319;28;20195;-82
2022/07/02 07:04:08;;;;;;;4.10;1.13;;;23.50;99.90;;;;;;4997233;28;20190;-81
2022/07/02 07:06:43;;;;;;;4.13;0.80;;;24.60;99.90;;;;;;4996774;28;20212;-81
2022/07/02 07:09:09;;;;;;;2.97;0.80;;;24.80;72.80;;;;;;4997126;28;20181;-81
2022/07/02 07:11:35;;;;;;;1.60;0.30;;;24.80;49.00;;;;;;4996955;28;20451;-81
2022/07/02 07:14:00;;;;;;;3.43;1.00;;;25.20;47.50;;;;;;4997647;28;20476;-81
2022/07/02 07:16:26;;;;;;;1.77;0.77;;;25.70;39.50;;;;;;5000488;28;20186;-82
2022/07/02 07:18:55;;;;;;;1.67;0.47;;;25.80;18.30;;;;;;4997672;28;20703;-82
2022/07/02 07:21:20;;;;;;;4.57;0.50;;;26.00;14.70;;;;;;4999181;28;20262;-82
2022/07/02 07:23:46;;;;;;;3.53;0.30;;;26.60;15.60;;;;;;4999286;28;20447;-82
2022/07/02 07:26:11;;;;;;;4.43;0.80;;;26.90;6.70;;;;;;4997084;28;20690;-81
2022/07/02 07:28:37;;;;;;;1.93;0.60;;;26.50;1.00;;;;;;4997849;28;20179;-82
2022/07/02 07:31:02;;;;;;;1.67;0.40;;;26.60;1.00;;;;;;4997611;28;20251;-80
2022/07/02 07:33:28;;;;;;;3.33;0.50;;;26.80;6.50;;;;;;5000722;28;20179;-81
2022/07/02 07:35:53;;;;;;;3.30;0.53;;;26.60;1.00;;;;;;5009027;28;20187;-82
2022/07/02 07:38:19;;;;;;;2.20;0.97;;;26.90;1.00;;;;;;5006837;28;20172;-82
2022/07/02 07:40:44;;;;;;;2.73;0.47;;;27.20;2.30;;;;;;5007697;28;20225;-82
2022/07/02 07:43:10;;;;;;;2.20;0.60;;;27.50;1.00;;;;;;5006559;28;20234;-82
2022/07/02 07:45:38;;;;;;;2.30;0.40;;;27.70;1.00;;;;;;5004963;28;20174;-82
2022/07/02 07:48:04;;;;;;;1.30;0.53;;;27.80;1.00;;;;;;5006903;28;20204;-82
2022/07/02 07:50:29;;;;;;;1.43;0.33;;;27.80;1.00;;;;;;5008712;28;20434;-82
2022/07/02 07:52:55;;;;;;;2.43;0.57;;;27.80;1.00;;;;;;5008048;28;20227;-83
2022/07/02 07:55:20;;;;;;;2.70;0.60;;;27.30;1.00;;;;;;5007782;28;20172;-82
2022/07/02 07:57:46;;;;;;;2.37;0.50;;;27.60;1.00;;;;;;5004001;28;20586;-81
2022/07/02 08:00:12;;;;;;;2.13;0.43;;;27.70;1.00;;;;;;4994999;28;20178;-82
2022/07/02 08:02:37;;;;;;;2.90;0.50;;;27.90;1.00;;;;;;5000438;28;20175;-81
2022/07/02 08:05:03;;;;;;;3.00;0.20;;;27.50;1.00;;;;;;4999611;28;20194;-81
2022/07/02 08:07:28;;;;;;;3.80;0.40;;;27.70;1.00;;;;;;5003187;28;20210;-82
2022/07/02 08:09:55;;;;;;;2.50;0.50;;;28.00;1.00;;;;;;5008010;28;20182;-82
2022/07/02 08:12:21;;;;;;;4.03;1.50;;;28.10;1.00;;;;;;5004654;28;20182;-84
2022/07/02 08:14:46;;;;;;;1.47;0.30;;;28.30;1.00;;;;;;4999975;28;20510;-83
2022/07/02 08:17:12;;;;;;;1.97;0.27;;;28.40;1.00;;;;;;4998717;28;20238;-83
2022/07/02 08:19:37;;;;;;;4.23;0.40;;;28.40;1.00;;;;;;5003693;28;20176;-84
2022/07/02 08:22:03;;;;;;;1.70;0.20;;;26.60;1.00;;;;;;5006016;28;20186;-90
2022/07/02 08:24:29;;;;;;;1.70;0.20;;;26.10;1.00;;;;;;5001716;28;20168;-83
2022/07/02 08:26:54;;;;;;;2.23;0.37;;;27.10;1.00;;;;;;5001397;28;20211;-83
2022/07/02 08:29:20;;;;;;;1.93;0.20;;;28.10;1.00;;;;;;4999670;28;20430;-84
2022/07/02 08:31:45;;;;;;;4.80;0.57;;;28.60;1.00;;;;;;5001366;28;20174;-84
2022/07/02 08:34:11;;;;;;;2.70;0.50;;;28.90;1.00;;;;;;4999672;28;20540;-88
2022/07/02 08:36:39;;;;;;;2.00;0.47;;;29.20;1.00;;;;;;5002443;28;20234;-84
2022/07/02 08:39:05;;;;;;;1.50;0.50;;;28.60;1.00;;;;;;4999639;28;20171;-95
2022/07/02 08:41:32;;;;;;;1.93;0.40;;;28.30;1.00;;;;;;4998383;28;20516;-83
2022/07/02 08:44:00;;;;;;;1.63;0.40;;;28.00;1.00;;;;;;4996807;28;20164;-92
2022/07/02 08:46:26;;;;;;;2.23;0.30;;;27.90;1.00;;;;;;4997610;28;20466;-91
2022/07/02 08:48:53;;;;;;;1.67;0.40;;;28.70;1.00;;;;;;4996446;28;20437;-88
2022/07/02 08:51:21;;;;;;;1.10;0.33;;;28.40;1.00;;;;;;4999051;28;20414;-87
2022/07/02 08:53:47;;;;;;;1.43;0.37;;;28.60;1.00;;;;;;4997626;28;20448;-81
2022/07/02 08:56:13;;;;;;;1.20;0.20;;;29.10;1.00;;;;;;5000749;28;20418;-82
2022/07/02 08:58:39;;;;;;;0.63;0.20;;;29.80;1.00;;;;;;5004334;28;20473;-88
2022/07/02 09:01:07;;;;;;;2.93;0.40;;;29.40;1.00;;;;;;5001343;28;20434;-82
2022/07/02 09:03:37;;;;;;;0.90;0.33;;;29.70;1.00;;;;;;5000118;28;20427;-82
2022/07/02 09:06:06;;;;;;;3.10;0.40;;;;;;;;;;4999050;28;20418;-84
2022/07/02 09:08:33;;;;;;;4.00;0.40;;;29.90;1.00;;;;;;5001451;28;20415;-91
2022/07/02 09:11:00;;;;;;;2.20;0.40;;;29.30;1.00;;;;;;5003006;28;20423;-86
2022/07/02 09:13:27;;;;;;;1.27;0.20;;;29.60;1.00;;;;;;5001329;28;20494;-82
2022/07/02 09:15:54;;;;;;;1.43;0.53;;;30.10;1.00;;;;;;5000363;28;20486;-91
2022/07/02 09:18:20;;;;;;;0.50;0.20;;;29.90;1.00;;;;;;5007048;28;20438;-85
2022/07/02 09:20:45;;;;;;;2.73;0.40;;;30.10;1.00;;;;;;5003500;28;20415;-87
2022/07/02 09:23:20;;;;;;;0.80;0.20;;;30.30;1.00;;;;;;5004844;28;20238;-83
2022/07/02 09:25:48;;;;;;;3.00;0.20;;;30.40;1.00;;;;;;5019642;28;20178;-88
2022/07/02 09:28:18;;;;;;;1.53;0.30;;;30.50;1.00;;;;;;5017973;28;20883;-82
2022/07/02 09:30:43;;;;;;;4.20;0.30;;;29.90;1.00;;;;;;5018213;28;20945;-83
2022/07/02 09:33:31;;;;;;;3.10;0.30;;;29.90;1.00;;;;;;5018173;28;20422;-82
2022/07/02 09:35:59;;;;;;;3.80;0.50;;;30.40;1.00;;;;;;5017468;28;20631;-87
2022/07/02 09:38:24;;;;;;;1.87;0.20;;;30.70;1.00;;;;;;5016712;28;20798;-82
2022/07/02 09:40:55;;;;;;;0.60;0.20;;;30.50;1.00;;;;;;5017639;28;20429;-82
2022/07/02 09:43:28;;;;;;;1.73;0.20;;;30.20;1.00;;;;;;5016536;28;20640;-87
2022/07/02 09:45:55;;;;;;;2.40;0.20;;;28.00;1.00;;;;;;5018543;28;20422;-82
2022/07/02 09:48:20;;;;;;;2.50;0.30;;;27.80;1.00;;;;;;5018668;28;20484;-87
2022/07/02 09:50:46;;;;;;;1.33;0.30;;;28.10;1.00;;;;;;5015355;28;20406;-81
2022/07/02 09:53:12;;;;;;;1.80;0.20;;;28.60;1.00;;;;;;5013118;28;20177;-92
2022/07/02 09:55:37;;;;;;;1.50;0.20;;;28.20;1.00;;;;;;5019705;28;20175;-82
2022/07/02 09:58:04;;;;;;;1.67;0.40;;;29.10;1.00;;;;;;5023765;22;20471;-82
2022/07/02 10:00:34;;;;;;;1.80;0.30;;;29.70;1.00;;;;;;4979471;28;20188;-92
2022/07/02 10:03:01;;;;;;;1.30;0.20;;;29.00;1.00;;;;;;4982211;28;20508;-93
2022/07/02 10:05:27;;;;;;;1.27;0.20;;;28.60;1.00;;;;;;4983111;28;20784;-83
2022/07/02 10:07:54;;;;;;;0.93;0.30;;;29.30;1.00;;;;;;4987552;28;20459;-82
2022/07/02 10:10:50;;;;;;;2.00;0.50;;;30.30;1.00;;;;;;4973419;28;20211;-82
2022/07/02 10:13:16;;;;;;;1.20;0.30;;;30.30;1.00;;;;;;4974804;28;20451;-84
2022/07/02 10:16:03;;;;;;;1.67;0.40;;;30.50;1.00;;;;;;4983399;28;20420;-82
2022/07/02 10:18:29;;;;;;;1.30;0.20;;;30.80;1.00;;;;;;4974510;28;20423;-82
2022/07/02 10:20:59;;;;;;;2.40;0.20;;;30.60;1.00;;;;;;4973271;28;20502;-82
2022/07/02 10:23:25;;;;;;;0.63;0.20;;;30.70;1.00;;;;;;4976202;28;20180;-82
2022/07/02 10:25:52;;;;;;;1.33;0.20;;;30.40;1.00;;;;;;4977268;28;20419;-82
2022/07/02 10:28:18;;;;;;;3.37;0.43;;;31.10;1.00;;;;;;4978192;28;20510;-82
2022/07/02 10:30:44;;;;;;;2.00;0.30;;;;;;;;;;4978253;28;20862;-82
2022/07/02 10:33:40;;;;;;;1.83;0.83;;;31.60;1.00;;;;;;4978258;28;20176;-82
2022/07/02 10:36:09;;;;;;;2.90;0.40;;;30.80;1.00;;;;;;4976805;28;20250;-83
2022/07/02 10:38:39;;;;;;;2.00;0.40;;;31.20;99.90;;;;;;4977936;28;20439;-82
2022/07/02 10:41:07;;;;;;;1.37;0.20;;;29.50;77.30;;;;;;4976963;28;20430;-82
2022/07/02 10:43:34;;;;;;;1.30;0.20;;;28.10;62.30;;;;;;4978192;28;20807;-82
2022/07/02 10:46:05;;;;;;;1.00;0.20;;;29.00;68.20;;;;;;4976685;28;20482;-82
2022/07/02 10:48:34;;;;;;;1.23;0.30;;;29.50;84.20;;;;;;4977882;28;20518;-82
2022/07/02 10:50:59;;;;;;;1.87;0.30;;;29.80;90.90;;;;;;4976625;28;20422;-82
2022/07/02 10:53:27;;;;;;;2.93;0.40;;;30.20;99.90;;;;;;4976684;28;20506;-82
2022/07/02 10:55:59;;;;;;;1.80;0.30;;;;;;;;;;4977716;28;20238;-82
2022/07/02 10:58:37;;;;;;;1.23;0.20;;;28.00;1.00;;;;;;4977334;28;20455;-81
2022/07/02 11:01:13;;;;;;;1.80;0.20;;;26.90;1.00;;;;;;4977738;28;20411;-81
2022/07/02 11:03:50;;;;;;;2.00;0.20;;;26.50;1.00;;;;;;4977731;28;20838;-81
2022/07/02 11:06:23;;;;;;;0.63;0.20;;;26.30;1.00;;;;;;4978019;28;21038;-81
2022/07/02 11:08:51;;;;;;;3.13;0.20;;;28.20;1.00;;;;;;4978572;28;20419;-81
2022/07/02 11:11:40;;;;;;;1.37;0.30;;;28.80;1.00;;;;;;4977712;28;20502;-81
2022/07/02 11:14:10;;;;;;;1.20;0.20;;;27.50;1.00;;;;;;4978023;28;20818;-81
2022/07/02 11:16:38;;;;;;;1.43;0.30;;;26.90;1.00;;;;;;4977343;28;20745;-81
2022/07/02 11:19:16;;;;;;;0.80;0.20;;;28.00;1.00;;;;;;4977215;28;20423;-82
2022/07/02 11:21:42;;;;;;;0.50;0.30;;;28.90;1.00;;;;;;4977280;28;20493;-81
2022/07/02 11:24:10;;;;;;;1.43;0.30;;;27.70;1.00;;;;;;4977429;28;20518;-81
2022/07/02 11:26:39;;;;;;;2.00;0.30;;;28.00;1.00;;;;;;4976902;28;20258;-81
2022/07/02 11:29:05;;;;;;;1.80;0.20;;;29.10;1.00;;;;;;4976544;28;20408;-82
2022/07/02 11:31:35;;;;;;;3.70;0.20;;;29.60;1.00;;;;;;4976966;28;20936;-82
2022/07/02 11:34:01;;;;;;;1.90;0.47;;;29.50;1.00;;;;;;4996022;28;20169;-82
2022/07/02 11:36:29;;;;;;;1.00;0.30;;;28.70;1.00;;;;;;4997100;28;20422;-82
2022/07/02 11:38:55;;;;;;;0.70;0.40;;;28.90;1.00;;;;;;4997326;28;20181;-84
2022/07/02 11:41:26;;;;;;;5.70;0.70;;;28.50;1.00;;;;;;4992009;28;20964;-82
2022/07/02 11:43:53;;;;;;;1.27;0.20;;;29.60;1.00;;;;;;4984734;28;20416;-88
2022/07/02 11:46:24;;;;;;;3.43;0.20;;;28.70;1.00;;;;;;4985557;28;20515;-89
2022/07/02 11:48:51;;;;;;;0.70;0.20;;;30.10;1.00;;;;;;4984577;28;20924;-86
2022/07/02 11:51:19;;;;;;;1.20;0.27;;;29.90;1.00;;;;;;4979988;28;20411;-83
2022/07/02 11:53:57;;;;;;;2.10;0.20;;;30.50;1.00;;;;;;4981552;28;20531;-93
2022/07/02 11:56:23;;;;;;;1.03;0.30;;;29.90;1.00;;;;;;4979125;28;20412;-85
2022/07/02 11:58:49;;;;;;;1.37;0.20;;;29.80;1.00;;;;;;4983576;28;20479;-92
2022/07/02 12:01:26;;;;;;;1.93;0.47;;;30.20;1.00;;;;;;4979893;28;20187;-94
2022/07/02 12:03:54;;;;;;;1.43;0.20;;;29.60;1.00;;;;;;4986496;28;20171;-88
2022/07/02 12:06:20;;;;;;;1.80;0.20;;;28.20;1.00;;;;;;4982992;28;20970;-93
2022/07/02 12:08:46;;;;;;;4.23;2.73;;;27.30;1.00;;;;;;4989399;28;20419;-87
2022/07/02 12:11:15;;;;;;;2.07;0.73;;;27.10;1.00;;;;;;4980577;28;20181;-82
2022/07/02 12:13:41;;;;;;;1.30;0.20;;;26.60;1.00;;;;;;4985317;28;20235;-86
2022/07/02 12:16:19;;;;;;;2.20;0.23;;;28.40;1.00;;;;;;4977499;28;20454;-82
2022/07/02 12:19:06;;;;;;;1.80;0.30;;;28.10;1.00;;;;;;4981277;28;20427;-83
2022/07/02 12:21:35;;;;;;;1.20;0.50;;;27.20;1.00;;;;;;4981438;28;20424;-91
2022/07/02 12:24:03;;;;;;;1.17;0.30;;;26.60;1.00;;;;;;4984549;28;20424;-88
2022/07/02 12:26:30;;;;;;;1.70;0.50;;;27.70;1.00;;;;;;4982457;28;20467;-83
2022/07/02 12:31:50;;;;;;;1.90;0.20;;;30.10;1.00;;;;;;4983256;28;20458;-83
2022/07/02 12:34:16;;;;;;;1.10;0.20;;;30.70;1.00;;;;;;4981388;28;20424;-83
2022/07/02 12:36:56;;;;;;;1.20;0.20;;;30.50;1.00;;;;;;4980569;28;20548;-83
2022/07/02 12:39:41;;;;;;;2.97;0.33;;;30.60;1.00;;;;;;4982198;28;20407;-84
2022/07/02 12:42:21;;;;;;;1.13;0.20;;;30.50;1.00;;;;;;4986784;28;20400;-83
2022/07/02 12:44:58;;;;;;;1.00;0.30;;;31.10;1.00;;;;;;4980249;28;20435;-86
2022/07/02 12:47:40;;;;;;;1.50;0.30;;;29.30;1.00;;;;;;4981697;28;20483;-85
2022/07/02 12:50:10;;;;;;;2.20;0.50;;;29.00;1.00;;;;;;4976469;28;20419;-83
2022/07/02 12:52:47;;;;;;;1.60;0.40;;;28.60;1.00;;;;;;4979833;28;20435;-92
2022/07/02 12:55:21;;;;;;;1.33;0.20;;;29.60;1.00;;;;;;4980787;28;20416;-96
2022/07/02 12:57:46;;;;;;;0.87;0.20;;;30.60;1.00;;;;;;4979250;28;20474;-87
2022/07/02 13:00:12;;;;;;;1.50;0.20;;;30.70;1.00;;;;;;4976942;28;20443;-91